Minot Air Force Base, ND

12:29 PM CST on February 10, 2016 (GMT -0600)
APRSWXNET | | Change Station
CLOSE
Current Station
Personal Weather Station
Location: Glenburn, ND
Elevation: 1574 ft
Nearby Weather Stations

Elev 1574 ft 48.45 °N, 101.22 °W | Updated 31 minutes ago

Overcast
Overcast
13 °F
Feels Like 6 °F
N
4
Wind Variable Wind from NE
Gusts 8.0 mph

Today
High -- | Low -- °F
--% Chance of Precip.
Yesterday
High -- | Low -- °F
Precip. -- in
Pressure 30.04 in
Visibility 6.0 miles
Clouds Scattered Clouds 200 ft
Mostly Cloudy 700 ft
Overcast 1100 ft
Windchill 6 °F
Dew Point 9 °F
Humidity 82%
Rainfall in
Snow Depth Not available.
8:01 AM 5:58 PM
Waxing Crescent, 6% visible
SPECI KMIB 101815Z AUTO 07006KT 6SM -SN SCT002 BKN007 OVC011 M10/M12 A3004 RMK AO2 SNB1758E13FZDZB14E15SNB15 $
Pressure 30.04 in
Visibility 6.0 miles
Clouds Scattered Clouds 200 ft
Mostly Cloudy 700 ft
Overcast 1100 ft
Windchill 6 °F
Dew Point 9 °F
Humidity 82%
Rainfall in
Snow Depth Not available.
8:01 AM 5:58 PM
Waxing Crescent, 6% visible
SPECI KMIB 101815Z AUTO 07006KT 6SM -SN SCT002 BKN007 OVC011 M10/M12 A3004 RMK AO2 SNB1758E13FZDZB14E15SNB15 $

10-Day Weather Forecast

Almanac

Astronomy

Feb. 10, 2016 Rise Set
Actual Time
Civil Twilight
Nautical Twilight
Astronomical Twilight
Moon
Length of Visible Light
Length of Day
Tomorrow will be .
, % of the Moon is Illuminated

Today's Extremes

State Highs State Lows

Community

WunderPhotos

Upload Photos

1,891,907 photos uploaded!

WunderBlog® & News

Nearby

Air Quality

  Air Quality AQ Index Pollutant
Not available.

Snow Depth

Station Depth Elevation

Earthquake Activity

City Distance Mag. Time & Date
Minimum magnitude displayed is 2.5.

Coastal Water Temperatures

Place Temperature

Stations

Nearby Weather Stations

Station Location Temp. Windchill Dew Point Humidity Wind Precip. Elev Updated Type
                   

Watches & Warnings

There are currently no watches in effect.